Izoro, Texas
Current Conditions -  °F | °C
As of 5:55 PM on Friday 19 Dec 2014 (Local Time) from KGOP Reporting Station
Broken Clouds Broken Clouds  
Wind Chill: 42°   Ceiling: 600
Heat Index: 46°   Visibility: 4mi
Dew Point: 46°   Wind: 9mph
Humidity: 100%   Direction: 360°N
Pressure: 30.18"   Gusts: NA
Location:  31.392°N, 97.7452°W
Report Text: KGOP 192355Z AUTO 36008KT 4SM BKN006 08/08 A3018 RMK AO2 PWINO
Loading
Personal Weather Stations






























Interactive Weather Map New forecast layout! Learn more

10-Day Weather Forecast

Advertisements
Track Severe Weather on mobile